createdAt,value
2018-02-12T00:02:20.234Z,99034.25
2018-02-12T00:04:47.783Z,99036.48
2018-02-12T00:07:15.371Z,99036.34
2018-02-12T00:09:42.901Z,99041.66
2018-02-12T00:12:10.764Z,99038.69
2018-02-12T00:14:38.337Z,99037.03
2018-02-12T00:17:06.036Z,99039.19
2018-02-12T00:19:33.631Z,99042.18
2018-02-12T00:22:01.694Z,99045.07
2018-02-12T00:24:29.272Z,99046.16
2018-02-12T00:26:56.854Z,99039.05
2018-02-12T00:29:24.433Z,99040.35
2018-02-12T00:31:52.001Z,99043.29
2018-02-12T00:34:19.576Z,99047.12
2018-02-12T00:36:47.119Z,99048.34
2018-02-12T00:39:14.733Z,99055.70
2018-02-12T00:41:42.261Z,99051.72
2018-02-12T00:44:09.794Z,99050.38
2018-02-12T00:46:37.362Z,99047.41
2018-02-12T00:49:05.082Z,99052.78
2018-02-12T00:51:32.663Z,99053.00
2018-02-12T00:54:00.206Z,99051.92
2018-02-12T00:56:27.786Z,99050.70
2018-02-12T00:58:55.333Z,99048.25
2018-02-12T01:01:22.948Z,99053.38
2018-02-12T01:03:50.526Z,99051.50
2018-02-12T01:06:18.511Z,99054.23
2018-02-12T01:08:46.091Z,99056.25
2018-02-12T01:11:13.616Z,99051.86
2018-02-12T01:13:41.181Z,99056.13
2018-02-12T01:16:08.715Z,99057.08
2018-02-12T01:18:36.285Z,99062.05
2018-02-12T01:21:03.819Z,99061.91
2018-02-12T01:23:31.803Z,99061.48
2018-02-12T01:25:59.359Z,99060.17
2018-02-12T01:28:26.957Z,99057.63
2018-02-12T01:30:54.710Z,99064.81
2018-02-12T01:33:22.250Z,99054.15
2018-02-12T01:35:49.823Z,99054.13
2018-02-12T01:38:17.345Z,99056.84
2018-02-12T01:40:44.939Z,99059.96
2018-02-12T01:43:12.464Z,99057.24
2018-02-12T01:45:39.997Z,99051.84
2018-02-12T01:48:07.581Z,99049.52
2018-02-12T01:50:35.194Z,99048.23
2018-02-12T01:53:02.781Z,99050.83
2018-02-12T01:55:30.308Z,99058.11
2018-02-12T01:57:57.846Z,99056.56
2018-02-12T02:00:25.424Z,99058.02
2018-02-12T02:02:53.020Z,99063.66
2018-02-12T02:05:20.855Z,99060.02
2018-02-12T02:07:48.399Z,99068.36
2018-02-12T02:10:15.925Z,99061.44
2018-02-12T02:12:43.551Z,99066.66
2018-02-12T02:15:11.088Z,99066.31
2018-02-12T02:17:38.756Z,99068.77
2018-02-12T02:20:06.346Z,99069.67
2018-02-12T02:22:33.971Z,99071.58
2018-02-12T02:25:01.938Z,99074.20
2018-02-12T02:27:29.513Z,99072.03
2018-02-12T02:29:57.317Z,99078.41
2018-02-12T02:32:24.885Z,99081.14
2018-02-12T02:34:52.973Z,99076.04
2018-02-12T02:37:20.545Z,99069.25
2018-02-12T02:39:48.087Z,99071.39
2018-02-12T02:42:15.668Z,99071.61
2018-02-12T02:44:43.217Z,99075.27
2018-02-12T02:47:10.789Z,99075.05
2018-02-12T02:49:38.375Z,99080.52
2018-02-12T02:52:05.945Z,99078.52
2018-02-12T02:54:33.478Z,99079.11
2018-02-12T02:57:01.058Z,99085.33
2018-02-12T02:59:28.593Z,99084.27
2018-02-12T03:01:56.542Z,99085.91
2018-02-12T03:04:24.074Z,99084.05
2018-02-12T03:06:51.654Z,99079.88
2018-02-12T03:09:19.250Z,99082.97
2018-02-12T03:11:47.217Z,99078.80
2018-02-12T03:14:14.794Z,99081.49
2018-02-12T03:16:42.326Z,99084.13
2018-02-12T03:19:09.921Z,99082.14
2018-02-12T03:21:37.454Z,99090.22
2018-02-12T03:24:04.999Z,99084.36
2018-02-12T03:26:32.774Z,99088.13
2018-02-12T03:29:00.312Z,99086.86
2018-02-12T03:31:27.888Z,99082.73
2018-02-12T03:33:55.426Z,99082.57
2018-02-12T03:36:23.005Z,99086.57
2018-02-12T03:38:50.544Z,99089.38
2018-02-12T03:41:18.117Z,99081.27
2018-02-12T03:43:45.689Z,99078.94
2018-02-12T03:46:13.617Z,99080.58
2018-02-12T03:48:41.738Z,99085.87
2018-02-12T03:51:09.808Z,99083.86
2018-02-12T03:53:37.388Z,99081.31
2018-02-12T03:56:04.934Z,99084.09
2018-02-12T03:58:32.508Z,99086.57
2018-02-12T04:01:00.038Z,99090.38
2018-02-12T04:03:27.592Z,99084.73
2018-02-12T04:05:55.171Z,99085.87
2018-02-12T04:08:23.238Z,99083.08
2018-02-12T04:10:51.003Z,99084.14
2018-02-12T04:13:18.529Z,99082.70
2018-02-12T04:15:46.403Z,99082.45
2018-02-12T04:18:13.934Z,99084.64
2018-02-12T04:20:41.509Z,99091.00
2018-02-12T04:23:09.047Z,99096.26
2018-02-12T04:25:36.616Z,99092.56
2018-02-12T04:28:04.150Z,99100.00
2018-02-12T04:30:31.731Z,99095.72
2018-02-12T04:32:59.536Z,99098.39
2018-02-12T04:35:27.106Z,99101.91
2018-02-12T04:37:54.633Z,99096.30
2018-02-12T04:40:22.161Z,99097.41
2018-02-12T04:42:49.739Z,99101.09
2018-02-12T04:45:17.273Z,99103.59
2018-02-12T04:47:45.005Z,99103.89
2018-02-12T04:50:13.367Z,99105.53
2018-02-12T04:52:40.941Z,99109.50
2018-02-12T04:55:08.469Z,99107.72
2018-02-12T04:57:36.002Z,99111.30
2018-02-12T05:00:03.587Z,99111.77
2018-02-12T05:02:31.178Z,99119.25
2018-02-12T05:04:58.713Z,99119.41
2018-02-12T05:07:26.250Z,99123.66
2018-02-12T05:09:53.888Z,99132.12
2018-02-12T05:12:21.417Z,99131.39
2018-02-12T05:14:49.373Z,99131.95
2018-02-12T05:17:17.710Z,99133.04
2018-02-12T05:19:46.282Z,99137.00
2018-02-12T05:22:13.895Z,99137.77
2018-02-12T05:24:41.793Z,99131.25
2018-02-12T05:27:09.330Z,99141.58
2018-02-12T05:29:37.191Z,99147.64
2018-02-12T05:32:04.798Z,99147.48
2018-02-12T05:34:32.722Z,99143.59
2018-02-12T05:37:00.512Z,99149.34
2018-02-12T05:39:28.051Z,99153.45
2018-02-12T05:41:55.631Z,99149.45
2018-02-12T05:44:23.205Z,99152.52
2018-02-12T05:46:51.228Z,99157.59
2018-02-12T05:49:18.757Z,99165.97
2018-02-12T05:51:46.303Z,99165.70
2018-02-12T05:54:13.887Z,99171.40
2018-02-12T05:56:41.519Z,99172.55
2018-02-12T05:59:09.075Z,99174.48
2018-02-12T06:01:36.651Z,99178.58
2018-02-12T06:04:05.110Z,99183.91
2018-02-12T06:06:32.695Z,99185.23
2018-02-12T06:09:00.458Z,99182.01
2018-02-12T06:11:28.619Z,99187.16
2018-02-12T06:13:56.211Z,99192.67
2018-02-12T06:16:23.753Z,99191.64
2018-02-12T06:18:51.673Z,99192.27
2018-02-12T06:21:19.224Z,99201.08
2018-02-12T06:23:47.497Z,99209.66
2018-02-12T06:26:15.034Z,99202.36
2018-02-12T06:28:42.601Z,99204.58
2018-02-12T06:31:10.138Z,99219.37
2018-02-12T06:33:37.738Z,99219.34
2018-02-12T06:36:05.274Z,99213.24
2018-02-12T06:38:33.581Z,99213.75
2018-02-12T06:41:02.163Z,99212.64
2018-02-12T06:43:30.090Z,99215.88
2018-02-12T06:45:57.622Z,99217.05
2018-02-12T06:48:25.567Z,99217.03
2018-02-12T06:50:53.102Z,99219.20
2018-02-12T06:53:20.988Z,99222.34
2018-02-12T06:55:48.544Z,99210.84
2018-02-12T06:58:16.134Z,99217.42
2018-02-12T07:00:44.296Z,99221.96
2018-02-12T07:03:12.695Z,99235.32
2018-02-12T07:05:40.226Z,99235.98
2018-02-12T07:08:07.974Z,99233.22
2018-02-12T07:10:35.955Z,99237.42
2018-02-12T07:13:03.958Z,99237.49
2018-02-12T07:15:32.502Z,99236.32
2018-02-12T07:18:00.111Z,99234.97
2018-02-12T07:20:27.953Z,99237.47
2018-02-12T07:22:55.549Z,99232.53
2018-02-12T07:25:23.125Z,99233.94
2018-02-12T07:27:51.592Z,99237.23
2018-02-12T07:30:19.216Z,99228.11
2018-02-12T07:32:46.806Z,99225.20
2018-02-12T07:35:14.352Z,99229.56
2018-02-12T07:37:42.445Z,99234.41
2018-02-12T07:40:10.194Z,99228.31
2018-02-12T07:42:38.111Z,99229.44
2018-02-12T07:45:05.807Z,99226.14
2018-02-12T07:47:33.435Z,99234.25
2018-02-12T07:50:01.438Z,99226.38
2018-02-12T07:52:29.182Z,99219.12
2018-02-12T07:54:56.762Z,99222.23
2018-02-12T07:57:24.442Z,99227.42
2018-02-12T07:59:52.886Z,99223.87
2018-02-12T08:02:20.428Z,99225.40
2018-02-12T08:04:48.187Z,99235.91
2018-02-12T08:07:16.232Z,99228.20
2018-02-12T08:09:44.449Z,99230.56
2018-02-12T08:12:12.021Z,99231.50
2018-02-12T08:14:39.601Z,99231.67
2018-02-12T08:17:07.129Z,99231.41
2018-02-12T08:19:34.695Z,99232.32
2018-02-12T08:22:02.453Z,99233.96
2018-02-12T08:24:30.056Z,99231.45
2018-02-12T08:26:57.718Z,99224.28
2018-02-12T08:29:25.303Z,99230.73
2018-02-12T08:31:53.394Z,99227.75
2018-02-12T08:34:21.277Z,99229.01
2018-02-12T08:36:48.813Z,99232.27
2018-02-12T08:39:16.354Z,99233.85
2018-02-12T08:41:44.200Z,99231.40
2018-02-12T08:44:11.789Z,99234.95
2018-02-12T08:46:39.853Z,99236.82
2018-02-12T08:49:08.154Z,99237.79
2018-02-12T08:51:36.214Z,99235.99
2018-02-12T08:54:03.793Z,99242.04
2018-02-12T08:56:31.745Z,99244.38
2018-02-12T08:59:00.104Z,99250.20
2018-02-12T09:01:28.343Z,99247.94
2018-02-12T09:03:55.935Z,99245.13
2018-02-12T09:06:24.525Z,99245.43
2018-02-12T09:08:52.348Z,99247.14
2018-02-12T09:11:19.951Z,99245.20
2018-02-12T09:25:48.094Z,99240.27
2018-02-12T09:28:15.921Z,99243.48
2018-02-12T09:30:43.463Z,99247.81
2018-02-12T09:33:11.730Z,99250.08
2018-02-12T09:35:40.962Z,99246.35
2018-02-12T09:38:09.000Z,99243.60
2018-02-12T09:40:36.754Z,99247.73
2018-02-12T09:43:04.324Z,99243.20
2018-02-12T09:45:31.957Z,99243.23
2018-02-12T09:48:00.206Z,99239.54
2018-02-12T09:50:29.091Z,99241.33
2018-02-12T09:52:57.564Z,99241.52
2018-02-12T09:55:25.198Z,99245.20
2018-02-12T09:57:54.122Z,99234.51
2018-02-12T10:00:22.498Z,99239.91
2018-02-12T10:02:50.088Z,99237.06
2018-02-12T10:05:19.600Z,99230.68
2018-02-12T10:07:49.239Z,99232.59
2018-02-12T10:10:18.267Z,99231.70
2018-02-12T10:12:45.855Z,99229.92
2018-02-12T10:15:13.435Z,99230.81
2018-02-12T10:17:41.043Z,99224.77
2018-02-12T10:20:08.592Z,99228.36
2018-02-12T10:22:36.208Z,99225.91
2018-02-12T10:25:04.418Z,99226.52
2018-02-12T10:27:32.288Z,99222.05
2018-02-12T10:30:00.273Z,99215.98
2018-02-12T10:32:29.076Z,99219.37
2018-02-12T10:34:56.671Z,99203.58
2018-02-12T10:37:24.285Z,99210.01
2018-02-12T10:39:53.036Z,99205.45
2018-02-12T10:42:21.445Z,99208.66
2018-02-12T10:44:50.440Z,99199.69
2018-02-12T10:47:19.548Z,99200.36
2018-02-12T10:49:47.122Z,99200.65
2018-02-12T10:52:14.719Z,99193.93
2018-02-12T10:54:42.803Z,99195.03
2018-02-12T10:57:10.420Z,99195.90
2018-02-12T10:59:38.360Z,99188.92
2018-02-12T11:02:05.904Z,99187.20
2018-02-12T11:04:35.404Z,99186.03
2018-02-12T11:07:02.996Z,99181.72
2018-02-12T11:09:30.614Z,99179.18
2018-02-12T11:11:58.183Z,99186.56
2018-02-12T11:14:25.780Z,99179.13
2018-02-12T11:16:54.718Z,99180.81
2018-02-12T11:19:24.175Z,99180.14
2018-02-12T11:21:52.640Z,99173.91
2018-02-12T11:24:20.779Z,99173.06
2018-02-12T11:26:48.362Z,99180.72
2018-02-12T11:29:15.915Z,99168.09
2018-02-12T11:31:43.985Z,99164.72
2018-02-12T11:34:11.541Z,99168.84
2018-02-12T11:36:41.872Z,99165.58
2018-02-12T11:39:09.853Z,99161.58
2018-02-12T11:41:38.123Z,99163.13
2018-02-12T11:44:05.796Z,99158.01
2018-02-12T11:46:33.407Z,99159.84
2018-02-12T11:49:01.081Z,99158.77
2018-02-12T11:51:28.657Z,99158.27
2018-02-12T11:53:56.252Z,99149.73
2018-02-12T11:56:23.845Z,99153.58
2018-02-12T11:58:51.543Z,99146.42
2018-02-12T12:01:19.132Z,99145.77
2018-02-12T12:03:47.476Z,99146.61
2018-02-12T12:06:15.385Z,99146.63
2018-02-12T12:08:42.938Z,99146.73
2018-02-12T12:11:10.984Z,99151.47
2018-02-12T12:13:38.553Z,99147.89
2018-02-12T12:16:06.151Z,99151.33
2018-02-12T12:18:34.087Z,99148.18
2018-02-12T12:21:01.678Z,99141.39
2018-02-12T12:23:29.281Z,99145.84
2018-02-12T12:25:56.864Z,99146.20
2018-02-12T12:28:25.264Z,99143.27
2018-02-12T12:30:53.453Z,99144.16
2018-02-12T12:33:21.719Z,99142.70
2018-02-12T12:35:49.566Z,99144.62
2018-02-12T12:38:17.137Z,99139.58
2018-02-12T12:40:44.751Z,99142.80
2018-02-12T12:43:12.336Z,99140.42
2018-02-12T12:45:40.004Z,99144.16
2018-02-12T12:48:07.607Z,99147.97
2018-02-12T12:50:35.184Z,99152.34
2018-02-12T12:53:02.771Z,99153.75
2018-02-12T12:55:31.021Z,99156.87
2018-02-12T12:57:58.591Z,99159.23
2018-02-12T13:00:26.878Z,99156.55
2018-02-12T13:02:54.462Z,99157.44
2018-02-12T13:05:22.080Z,99156.83
2018-02-12T13:07:50.146Z,99157.56
2018-02-12T13:10:18.218Z,99158.31
2018-02-12T13:12:45.946Z,99156.58
2018-02-12T13:15:13.504Z,99156.13
2018-02-12T13:17:41.058Z,99165.27
2018-02-12T13:20:08.787Z,99157.88
2018-02-12T13:22:36.452Z,99155.66
2018-02-12T13:25:04.186Z,99159.12
2018-02-12T13:27:32.165Z,99160.01
2018-02-12T13:29:59.844Z,99166.55
2018-02-12T13:32:28.059Z,99166.59
2018-02-12T13:34:56.129Z,99174.50
2018-02-12T13:37:23.904Z,99172.81
2018-02-12T13:39:51.460Z,99174.35
2018-02-12T13:42:19.255Z,99175.93
2018-02-12T13:44:47.443Z,99174.16
2018-02-12T13:47:16.208Z,99179.36
2018-02-12T13:49:43.953Z,99174.05
2018-02-12T13:52:12.391Z,99175.86
2018-02-12T13:54:39.987Z,99172.81
2018-02-12T13:57:07.747Z,99174.12
2018-02-12T13:59:35.651Z,99176.86
2018-02-12T14:02:03.218Z,99174.39
2018-02-12T14:04:30.828Z,99169.23
2018-02-12T14:06:58.416Z,99172.36
2018-02-12T14:09:28.237Z,99174.58
2018-02-12T14:11:55.840Z,99178.09
2018-02-12T14:14:23.440Z,99175.86
2018-02-12T14:16:51.552Z,99178.55
2018-02-12T14:19:19.692Z,99178.98
2018-02-12T14:21:47.746Z,99176.97
2018-02-12T14:24:15.506Z,99182.16
2018-02-12T14:26:43.724Z,99187.02
2018-02-12T14:29:12.278Z,99183.24
2018-02-12T14:31:40.189Z,99183.70
2018-02-12T14:34:07.830Z,99183.05
2018-02-12T14:36:35.974Z,99187.66
2018-02-12T14:39:03.978Z,99194.86
2018-02-12T14:41:32.125Z,99192.90
2018-02-12T14:44:00.951Z,99191.63
2018-02-12T14:46:28.689Z,99193.86
2018-02-12T14:48:57.500Z,99191.44
2018-02-12T14:51:25.476Z,99195.05
2018-02-12T14:53:54.688Z,99199.63
2018-02-12T14:56:22.355Z,99202.21
2018-02-12T14:58:49.995Z,99203.25
2018-02-12T15:01:18.336Z,99200.71
2018-02-12T15:03:45.932Z,99202.17
2018-02-12T15:06:13.519Z,99203.16
2018-02-12T15:08:41.248Z,99207.59
2018-02-12T15:11:10.040Z,99205.51
2018-02-12T15:13:38.074Z,99211.23
2018-02-12T15:16:05.848Z,99210.46
2018-02-12T15:18:33.810Z,99213.05
2018-02-12T15:21:02.218Z,99212.59
2018-02-12T15:23:30.335Z,99212.70
2018-02-12T15:25:57.888Z,99215.47
2018-02-12T15:28:25.648Z,99213.00
2018-02-12T15:30:53.422Z,99216.16
2018-02-12T15:33:22.032Z,99228.49
2018-02-12T15:35:49.912Z,99221.99
2018-02-12T15:38:18.191Z,99227.17
2018-02-12T15:40:46.064Z,99238.47
2018-02-12T15:43:13.664Z,99225.32
2018-02-12T15:45:42.052Z,99231.90
2018-02-12T15:48:10.402Z,99232.52
2018-02-12T15:50:39.504Z,99233.08
2018-02-12T15:53:07.524Z,99237.58
2018-02-12T15:55:35.119Z,99245.98
2018-02-12T15:58:02.675Z,99251.72
2018-02-12T16:00:31.261Z,99249.25
2018-02-12T16:02:59.503Z,99254.55
2018-02-12T16:05:27.088Z,99258.82
2018-02-12T16:07:55.338Z,99261.22
2018-02-12T16:10:22.922Z,99265.19
2018-02-12T16:12:51.292Z,99273.23
2018-02-12T16:15:20.191Z,99269.36
2018-02-12T16:17:48.624Z,99272.93
2018-02-12T16:20:16.202Z,99280.55
2018-02-12T16:22:44.627Z,99281.06
2018-02-12T16:25:12.204Z,99282.63
2018-02-12T16:27:39.760Z,99284.37
2018-02-12T16:30:08.191Z,99286.89
2018-02-12T16:32:36.016Z,99286.74
2018-02-12T16:35:05.508Z,99285.22
2018-02-12T16:37:33.244Z,99298.02
2018-02-12T16:40:00.799Z,99296.36
2018-02-12T16:42:28.630Z,99295.77
2018-02-12T16:44:56.187Z,99302.09
2018-02-12T16:47:24.713Z,99300.32
2018-02-12T16:49:53.054Z,99301.50
2018-02-12T16:52:22.348Z,99298.34
2018-02-12T16:54:50.843Z,99301.52
2018-02-12T16:57:18.880Z,99299.31
2018-02-12T16:59:46.436Z,99306.12
2018-02-12T17:02:14.874Z,99296.41
2018-02-12T17:04:43.239Z,99305.20
2018-02-12T17:07:10.841Z,99300.26
2018-02-12T17:09:38.751Z,99303.64
2018-02-12T17:12:07.333Z,99308.37
2018-02-12T17:14:35.510Z,99309.84
2018-02-12T17:17:03.473Z,99310.78
2018-02-12T17:19:31.935Z,99308.30
2018-02-12T17:21:59.671Z,99309.56
2018-02-12T17:24:28.979Z,99308.97
2018-02-12T17:26:56.567Z,99312.64
2018-02-12T17:29:24.204Z,99318.08
2018-02-12T17:31:52.484Z,99309.63
2018-02-12T17:34:20.040Z,99311.48
2018-02-12T17:36:48.002Z,99310.33
2018-02-12T17:39:16.494Z,99303.61
2018-02-12T17:41:44.650Z,99306.59
2018-02-12T17:44:12.502Z,99291.73
2018-02-12T17:46:41.993Z,99295.53
2018-02-12T17:49:11.149Z,99302.63
2018-02-12T17:51:38.748Z,99299.70
2018-02-12T17:54:07.751Z,99299.84
2018-02-12T17:56:36.185Z,99300.24
2018-02-12T17:59:03.727Z,99298.69
2018-02-12T18:01:31.334Z,99308.92
2018-02-12T18:03:58.933Z,99308.19
2018-02-12T18:06:26.682Z,99307.65
2018-02-12T18:08:54.236Z,99310.23
2018-02-12T18:11:22.572Z,99314.06
2018-02-12T18:13:50.698Z,99314.84
2018-02-12T18:16:19.176Z,99316.88
2018-02-12T18:18:46.776Z,99314.28
2018-02-12T18:21:14.372Z,99312.79
2018-02-12T18:23:42.712Z,99313.20
2018-02-12T18:26:10.260Z,99316.01
2018-02-12T18:28:38.088Z,99315.39
2018-02-12T18:31:06.509Z,99315.37
2018-02-12T18:33:34.488Z,99312.47
2018-02-12T18:36:02.926Z,99318.41
2018-02-12T18:38:30.480Z,99326.51
2018-02-12T18:40:58.214Z,99321.17
2018-02-12T18:43:25.754Z,99321.66
2018-02-12T18:45:53.308Z,99322.31
2018-02-12T18:48:20.895Z,99322.77
2018-02-12T18:50:48.488Z,99326.73
2018-02-12T18:53:17.285Z,99328.73
2018-02-12T18:55:44.881Z,99334.45
2018-02-12T18:58:14.775Z,99344.66
2018-02-12T19:00:42.349Z,99342.28
2018-02-12T19:03:10.786Z,99340.30
2018-02-12T19:05:38.424Z,99343.11
2018-02-12T19:08:06.632Z,99344.20
2018-02-12T19:10:35.221Z,99344.31
2018-02-12T19:13:02.786Z,99344.63
2018-02-12T19:15:30.524Z,99352.67
2018-02-12T19:17:58.305Z,99354.16
2018-02-12T19:20:25.852Z,99356.67
2018-02-12T19:22:54.964Z,99356.91
2018-02-12T19:25:22.804Z,99359.17
2018-02-12T19:27:51.697Z,99357.05
2018-02-12T19:30:19.922Z,99358.53
2018-02-12T19:32:48.609Z,99352.00
2018-02-12T19:35:17.278Z,99361.30
2018-02-12T19:37:44.902Z,99357.64
2018-02-12T19:40:13.059Z,99363.67
2018-02-12T19:42:40.892Z,99361.08
2018-02-12T19:45:08.665Z,99358.23
2018-02-12T19:47:36.553Z,99362.40
2018-02-12T19:50:04.164Z,99359.16
2018-02-12T19:52:32.329Z,99358.44
2018-02-12T19:54:59.944Z,99359.45
2018-02-12T19:57:28.058Z,99365.64
2018-02-12T19:59:55.617Z,99361.48
2018-02-12T20:02:26.192Z,99360.47
2018-02-12T20:04:54.131Z,99360.36
2018-02-12T20:07:22.239Z,99353.34
2018-02-12T20:09:50.129Z,99362.42
2018-02-12T20:12:18.820Z,99364.41
2018-02-12T20:14:46.459Z,99366.24
2018-02-12T20:17:14.455Z,99370.87
2018-02-12T20:19:42.336Z,99370.37
2018-02-12T20:22:09.961Z,99371.06
2018-02-12T20:24:39.336Z,99372.42
2018-02-12T20:27:07.191Z,99372.34
2018-02-12T20:29:35.975Z,99375.98
2018-02-12T20:32:04.348Z,99378.03
2018-02-12T20:34:31.895Z,99379.78
2018-02-12T20:36:59.464Z,99377.94
2018-02-12T20:39:27.396Z,99373.28
2018-02-12T20:41:54.963Z,99373.78
2018-02-12T20:44:23.143Z,99375.17
2018-02-12T20:46:50.742Z,99379.95
2018-02-12T20:49:18.333Z,99377.08
2018-02-12T20:51:46.328Z,99385.48
2018-02-12T20:54:13.875Z,99381.29
2018-02-12T20:56:41.746Z,99382.25
2018-02-12T20:59:10.074Z,99374.56
2018-02-12T21:01:38.049Z,99386.56
2018-02-12T21:04:05.826Z,99384.08
2018-02-12T21:06:33.567Z,99389.14
2018-02-12T21:09:01.339Z,99385.81
2018-02-12T21:11:28.891Z,99388.23
2018-02-12T21:13:56.786Z,99393.76
2018-02-12T21:16:24.347Z,99390.70
2018-02-12T21:18:52.124Z,99389.33
2018-02-12T21:21:19.685Z,99389.22
2018-02-12T21:23:48.410Z,99394.13
2018-02-12T21:26:16.012Z,99396.20
2018-02-12T21:28:43.960Z,99401.90
2018-02-12T21:31:12.583Z,99399.42
2018-02-12T21:33:40.195Z,99395.67
2018-02-12T21:36:07.761Z,99399.68
2018-02-12T21:38:35.331Z,99404.48
2018-02-12T21:41:03.223Z,99405.44
2018-02-12T21:43:30.776Z,99406.40
2018-02-12T21:45:58.384Z,99408.77
2018-02-12T21:48:25.944Z,99405.17
2018-02-12T21:50:53.553Z,99413.05
2018-02-12T21:53:21.449Z,99411.97
2018-02-12T21:55:49.008Z,99406.66
2018-02-12T21:58:16.599Z,99407.37
2018-02-12T22:00:44.192Z,99403.73
2018-02-12T22:03:11.775Z,99410.36
2018-02-12T22:05:39.895Z,99414.81
2018-02-12T22:08:08.410Z,99418.06
2018-02-12T22:10:36.225Z,99409.22
2018-02-12T22:13:04.852Z,99408.70
2018-02-12T22:15:32.405Z,99413.46
2018-02-12T22:18:00.011Z,99411.36
2018-02-12T22:20:27.619Z,99422.49
2018-02-12T22:22:56.095Z,99421.84
2018-02-12T22:25:23.687Z,99420.35
2018-02-12T22:27:51.482Z,99421.02
2018-02-12T22:30:19.074Z,99418.56
2018-02-12T22:32:46.618Z,99420.40
2018-02-12T22:35:14.158Z,99435.92
2018-02-12T22:37:42.908Z,99426.62
2018-02-12T22:40:10.459Z,99437.37
2018-02-12T22:42:38.016Z,99435.29
2018-02-12T22:45:05.608Z,99435.50
2018-02-12T22:47:33.146Z,99433.47
2018-02-12T22:50:00.747Z,99439.09
2018-02-12T22:52:28.454Z,99429.00
2018-02-12T22:54:56.598Z,99427.97
2018-02-12T22:57:25.037Z,99432.54
2018-02-12T22:59:53.348Z,99434.79
2018-02-12T23:02:20.972Z,99432.89
2018-02-12T23:04:48.521Z,99433.14
2018-02-12T23:07:16.071Z,99428.39
2018-02-12T23:09:43.668Z,99427.55
2018-02-12T23:12:11.215Z,99431.91
2018-02-12T23:14:38.806Z,99431.88
2018-02-12T23:17:12.218Z,99432.53
2018-02-12T23:19:40.241Z,99429.35
2018-02-12T23:22:07.793Z,99430.43
2018-02-12T23:24:35.600Z,99434.12
2018-02-12T23:27:03.182Z,99440.98
2018-02-12T23:29:31.431Z,99444.47
2018-02-12T23:31:59.032Z,99445.17
2018-02-12T23:34:26.583Z,99444.85
2018-02-12T23:36:54.136Z,99450.14
2018-02-12T23:39:21.732Z,99453.19
2018-02-12T23:41:49.280Z,99460.42
2018-02-12T23:44:16.818Z,99467.68
2018-02-12T23:46:44.391Z,99466.16
2018-02-12T23:49:11.994Z,99470.38
2018-02-12T23:51:39.532Z,99471.12
2018-02-12T23:54:07.104Z,99473.44
2018-02-12T23:56:34.675Z,99481.00
2018-02-12T23:59:02.260Z,99491.71
